Njord Cloud — C6XV6 — position and weather

sailwx.info

Track history (hours):
 
Tides and Currents Weather Stations Pressure Air Temp Water Temp Dewpoint Dewpoint Depression Visibility Wind Speed Wind Dir Waves Ship Positions

Njord Cloud

Last reported at 2018-Jun-22 15:48 UTC. Time now 2018-Jun-23 12:25 UTC.
Position N 41°02' E 001°34'.

Length 138 m; draft 6 m.

Type: Ship (hazmat cat B). MMSI: 311023300.

Date/timePositionNaut miles runAvg speedWind from/ knotsBaromVisibWave heightAir tempDewpointWater temp
2018-Jun-22 15:48N 41°02' E 001°34'413.7
2018-Jun-22 15:30N 41°01' E 001°39'713.6
2018-Jun-22 14:58N 41°01' E 001°49'613.8
2018-Jun-22 14:30N 40°60' E 001°57'713.9
2018-Jun-22 14:00N 40°59' E 002°06'714.1
2018-Jun-22 13:30N 40°58' E 002°16'714.3
2018-Jun-22 13:00N 40°57' E 002°25'714.2
2018-Jun-22 12:30N 40°56' E 002°34'713.9
2018-Jun-22 12:00N 40°55' E 002°43'713.9
2018-Jun-22 11:30N 40°54' E 002°52'5 9.0
2018-Jun-22 11:00N 40°54' E 002°58'4 7.4
2018-Jun-22 10:30N 40°54' E 003°03'21 7.5
2018-Jun-22 07:43N 40°52' E 003°31'5 7.4
2018-Jun-22 06:59N 40°51' E 003°38'5 7.5
2018-Jun-22 06:18N 40°51' E 003°45'2 7.5
2018-Jun-22 06:00N 40°51' E 003°48'4 7.5
2018-Jun-22 05:26N 40°50' E 003°53'13 7.5
2018-Jun-22 03:39N 40°49' E 004°11'2 7.4
2018-Jun-22 03:20N 40°49' E 004°14'18 7.4
2018-Jun-22 00:56N 40°47' E 004°37'3 7.6
2018-Jun-22 00:30N 40°47' E 004°42'4 7.5
2018-Jun-22 00:00N 40°47' E 004°47'17 7.5
2018-Jun-21 21:41N 40°45' E 005°09'1 7.5
2018-Jun-21 21:30N 40°45' E 005°11'15 7.4
2018-Jun-21 19:30N 40°44' E 005°31'125 7.2
2018-Jun-21 02:13N 42°17' E 007°22'314.3
2018-Jun-21 01:58N 42°20' E 007°25'4812.4
2018-Jun-20 22:06N 42°58' E 008°04'312.8
2018-Jun-20 21:53N 43°01' E 008°06'812.7
2018-Jun-20 21:13N 43°08' E 008°13'312.8
2018-Jun-20 21:00N 43°10' E 008°15'612.9
2018-Jun-20 20:30N 43°15' E 008°20'1312.8
2018-Jun-20 19:28N 43°27' E 008°28'1212.9
2018-Jun-20 18:32N 43°38' E 008°34'212.8
2018-Jun-20 18:20N 43°41' E 008°35'512.8
2018-Jun-20 17:59N 43°45' E 008°37'613.0
2018-Jun-20 17:30N 43°51' E 008°40'713.4
2018-Jun-20 17:00N 43°57' E 008°42'713.2
2018-Jun-20 16:30N 44°03' E 008°46'612.3
2018-Jun-20 16:00N 44°09' E 008°48'612.8
2018-Jun-20 15:30N 44°16' E 008°47'612.7
2018-Jun-20 15:00N 44°22' E 008°46'4 7.8
2018-Jun-20 14:30N 44°25' E 008°49'0 1.0
2018-Jun-20 14:00N 44°25' E 008°50'0 0.0
2018-Jun-20 13:27N 44°25' E 008°50'0 0.0
2018-Jun-20 13:00N 44°25' E 008°50'0 0.0
2018-Jun-20 12:30N 44°25' E 008°50'0 0.0
2018-Jun-20 11:57N 44°25' E 008°50'0 0.0
2018-Jun-20 11:30N 44°25' E 008°50'0 0.0
2018-Jun-20 10:51N 44°25' E 008°50'0 0.0
2018-Jun-20 10:30N 44°25' E 008°50'0 0.0
2018-Jun-20 09:51N 44°25' E 008°50'0 0.0
2018-Jun-20 09:30N 44°25' E 008°50'0 0.0
2018-Jun-20 08:48N 44°25' E 008°50'0 0.0
2018-Jun-20 08:21N 44°25' E 008°50'0 0.0
2018-Jun-20 07:54N 44°25' E 008°50'0 0.0
2018-Jun-20 07:21N 44°25' E 008°50'0 0.0
2018-Jun-20 06:54N 44°25' E 008°50'0 0.0
2018-Jun-20 06:24N 44°25' E 008°50'0 0.0
2018-Jun-20 05:54N 44°25' E 008°50'0 0.0
2018-Jun-20 05:24N 44°25' E 008°50'0 0.0
2018-Jun-20 04:51N 44°25' E 008°50'0 0.0
2018-Jun-20 04:24N 44°25' E 008°50'0 0.0
2018-Jun-20 03:54N 44°25' E 008°50'0 0.0
2018-Jun-20 03:12N 44°25' E 008°50'0 0.0
2018-Jun-20 02:57N 44°25' E 008°50'0 0.0
2018-Jun-20 02:15N 44°25' E 008°50'0 0.0
2018-Jun-20 01:57N 44°25' E 008°50'0 0.0
2018-Jun-20 01:30N 44°25' E 008°50'0 0.0
2018-Jun-20 00:57N 44°25' E 008°50'0 0.0
2018-Jun-20 00:27N 44°25' E 008°50'0 0.0
2018-Jun-19 23:45N 44°25' E 008°50'0 0.0
2018-Jun-19 23:27N 44°25' E 008°50'0 0.0
2018-Jun-19 22:45N 44°25' E 008°50'0 0.0
2018-Jun-19 22:27N 44°25' E 008°50'0 0.0
2018-Jun-19 21:48N 44°25' E 008°50'0 0.0
2018-Jun-19 21:15N 44°25' E 008°50'0 0.0
2018-Jun-19 20:51N 44°25' E 008°50'0 0.0
2018-Jun-19 20:21N 44°25' E 008°50'0 0.0
2018-Jun-19 19:51N 44°25' E 008°50'0 0.0
2018-Jun-19 19:03N 44°25' E 008°50'0 0.0
2018-Jun-19 18:51N 44°25' E 008°50'0 0.0
2018-Jun-19 18:21N 44°25' E 008°50'0 0.0
2018-Jun-19 17:54N 44°25' E 008°50'0 0.0
2018-Jun-19 17:21N 44°25' E 008°50'0 0.0
2018-Jun-19 16:54N 44°25' E 008°50'0 0.0
2018-Jun-19 16:24N 44°25' E 008°50'0 0.0
2018-Jun-19 15:54N 44°25' E 008°50'0 0.0
2018-Jun-19 15:24N 44°25' E 008°50'0 0.0
2018-Jun-19 14:57N 44°25' E 008°50'0 0.0
2018-Jun-19 14:27N 44°25' E 008°50'0 0.0
2018-Jun-19 13:54N 44°25' E 008°50'0 0.0
2018-Jun-19 13:24N 44°25' E 008°50'0 0.0
2018-Jun-19 12:54N 44°25' E 008°50'0 0.0
2018-Jun-19 12:24N 44°25' E 008°50'0 0.0
2018-Jun-19 12:00N 44°25' E 008°50'0 0.0
2018-Jun-19 11:27N 44°25' E 008°50'0 0.0
2018-Jun-19 11:00N 44°25' E 008°50'0 0.0
2018-Jun-19 10:27N 44°25' E 008°50'0 0.0
2018-Jun-19 10:00N 44°25' E 008°50'0 0.0
2018-Jun-19 09:30N 44°25' E 008°50'0 0.0
2018-Jun-19 09:00N 44°25' E 008°50'0 0.0
2018-Jun-19 08:30N 44°25' E 008°50'0 0.0
2018-Jun-19 08:00N 44°25' E 008°50'0 0.0
2018-Jun-19 07:30N 44°25' E 008°50'0 0.0
2018-Jun-19 07:00N 44°25' E 008°50'0 0.0
2018-Jun-19 06:30N 44°25' E 008°50'0 0.0
2018-Jun-19 06:00N 44°25' E 008°50'0 0.0
2018-Jun-19 05:30N 44°25' E 008°50'0 0.0
2018-Jun-19 04:51N 44°25' E 008°50'0 0.0
2018-Jun-19 04:18N 44°25' E 008°50'0 0.0
2018-Jun-19 03:51N 44°25' E 008°50'0 0.0
2018-Jun-19 03:24N 44°25' E 008°50'0 0.0
2018-Jun-19 02:54N 44°25' E 008°50'0 0.0
2018-Jun-19 02:24N 44°25' E 008°50'0 0.0
2018-Jun-19 01:54N 44°25' E 008°50'0 0.0
2018-Jun-19 00:54N 44°25' E 008°50'0 0.0
2018-Jun-19 00:27N 44°25' E 008°50'0 0.0
2018-Jun-18 23:57N 44°25' E 008°50'0 0.0
2018-Jun-18 23:27N 44°25' E 008°50'0 0.0
2018-Jun-18 22:57N 44°25' E 008°50'0 0.0
2018-Jun-18 22:27N 44°25' E 008°50'0 0.0
2018-Jun-18 22:00N 44°25' E 008°50'0 0.0
2018-Jun-18 21:30N 44°25' E 008°50'0 0.0
2018-Jun-18 21:00N 44°25' E 008°50'0 0.0
2018-Jun-18 20:30N 44°25' E 008°50'0 0.0
2018-Jun-18 20:00N 44°25' E 008°50'0 0.0
2018-Jun-18 19:30N 44°25' E 008°50'0 0.0
2018-Jun-18 19:00N 44°25' E 008°50'0 0.0
2018-Jun-18 18:30N 44°25' E 008°50'0 0.0
2018-Jun-18 17:57N 44°25' E 008°50'0 0.0
2018-Jun-18 17:30N 44°25' E 008°50'0 0.6
2018-Jun-18 17:01N 44°25' E 008°50'3 6.9
2018-Jun-18 16:30N 44°22' E 008°47'2 3.4
2018-Jun-18 16:00N 44°21' E 008°49'4 7.5
2018-Jun-18 15:30N 44°24' E 008°52'0 0.2
2018-Jun-18 14:59N 44°24' E 008°53'0 0.0
2018-Jun-18 14:29N 44°24' E 008°53'0 0.0
2018-Jun-18 13:59N 44°24' E 008°53'0 0.1
2018-Jun-18 13:29N 44°24' E 008°53'0 0.1
2018-Jun-18 12:59N 44°24' E 008°53'0 0.1
2018-Jun-18 12:29N 44°24' E 008°53'0 0.0
2018-Jun-18 11:59N 44°24' E 008°53'0 0.0
2018-Jun-18 11:29N 44°24' E 008°53'0 0.0
2018-Jun-18 10:59N 44°24' E 008°53'0 0.0
2018-Jun-18 10:29N 44°24' E 008°53'0 0.0
2018-Jun-18 09:59N 44°24' E 008°53'0 0.0
2018-Jun-18 09:29N 44°24' E 008°53'0 0.0
2018-Jun-18 08:59N 44°24' E 008°53'0 0.0
2018-Jun-18 08:29N 44°24' E 008°53'0 0.0
2018-Jun-18 07:59N 44°24' E 008°53'0 0.0
2018-Jun-18 07:29N 44°24' E 008°53'0 0.0
2018-Jun-18 06:59N 44°24' E 008°53'0 0.0
2018-Jun-18 06:29N 44°24' E 008°53'0 0.0
2018-Jun-18 05:59N 44°24' E 008°53'0 0.0
2018-Jun-18 05:29N 44°24' E 008°53'0 0.0
2018-Jun-18 04:59N 44°24' E 008°53'0 0.0
2018-Jun-18 04:29N 44°24' E 008°53'0 0.0
2018-Jun-18 03:59N 44°24' E 008°53'0 0.0
2018-Jun-18 03:29N 44°24' E 008°53'0 0.0
2018-Jun-18 02:59N 44°24' E 008°53'0 0.0
2018-Jun-18 02:29N 44°24' E 008°53'0 0.0
2018-Jun-18 01:59N 44°24' E 008°53'0 0.0
2018-Jun-18 01:29N 44°24' E 008°53'0 0.0
2018-Jun-18 00:59N 44°24' E 008°53'0 0.0
2018-Jun-18 00:29N 44°24' E 008°53'0 0.0
2018-Jun-17 23:59N 44°24' E 008°53'0 0.0
2018-Jun-17 23:29N 44°24' E 008°53'0 0.0
2018-Jun-17 22:59N 44°24' E 008°53'0 0.0
2018-Jun-17 22:29N 44°24' E 008°53'0 0.0
2018-Jun-17 21:59N 44°24' E 008°53'0 0.0
2018-Jun-17 21:29N 44°24' E 008°53'0 0.0
2018-Jun-17 20:56N 44°24' E 008°53'0 0.0
2018-Jun-17 20:29N 44°24' E 008°53'0 0.0
2018-Jun-17 19:59N 44°24' E 008°53'0 0.0
2018-Jun-17 19:29N 44°24' E 008°53'0 0.0
2018-Jun-17 18:59N 44°24' E 008°53'0 0.0
2018-Jun-17 18:29N 44°24' E 008°53'0 0.0
2018-Jun-17 17:56N 44°24' E 008°53'0 0.0
2018-Jun-17 17:29N 44°24' E 008°53'0 0.0
2018-Jun-17 16:59N 44°24' E 008°53'0 0.0
2018-Jun-17 16:29N 44°24' E 008°53'0 0.0
2018-Jun-17 15:59N 44°24' E 008°53'0 0.0
2018-Jun-17 15:29N 44°24' E 008°53'0 0.0
2018-Jun-17 14:59N 44°24' E 008°53'0 0.0
2018-Jun-17 14:29N 44°24' E 008°53'0 0.0
2018-Jun-17 13:59N 44°24' E 008°53'0 0.0
2018-Jun-17 13:29N 44°24' E 008°53'0 0.0
2018-Jun-17 12:59N 44°24' E 008°53'0 0.0
2018-Jun-17 12:29N 44°24' E 008°53'0 0.0
2018-Jun-17 11:59N 44°24' E 008°53'0 0.0
2018-Jun-17 11:29N 44°24' E 008°53'0 0.0
2018-Jun-17 10:59N 44°24' E 008°53'0 0.0
2018-Jun-17 10:29N 44°24' E 008°53'0 0.0
2018-Jun-17 09:59N 44°24' E 008°53'0 0.0
2018-Jun-17 09:29N 44°24' E 008°53'0 0.0
2018-Jun-17 08:59N 44°24' E 008°53'0 0.0
2018-Jun-17 08:29N 44°24' E 008°53'0 0.0
2018-Jun-17 07:59N 44°24' E 008°53'0 0.0
2018-Jun-17 07:29N 44°24' E 008°53'0 0.0
2018-Jun-17 06:59N 44°24' E 008°53'0 0.0
2018-Jun-17 06:29N 44°24' E 008°53'0 0.1
2018-Jun-17 05:59N 44°24' E 008°53'0 0.0
2018-Jun-17 05:26N 44°24' E 008°53'0 0.0
2018-Jun-17 04:59N 44°24' E 008°53'0 0.0
2018-Jun-17 04:29N 44°24' E 008°53'0 0.0
2018-Jun-17 03:59N 44°24' E 008°53'0 0.0
2018-Jun-17 03:29N 44°24' E 008°53'0 0.0
2018-Jun-17 02:56N 44°24' E 008°53'0 0.0
2018-Jun-17 02:29N 44°24' E 008°53'0 0.0
2018-Jun-17 01:59N 44°24' E 008°53'0 0.0
2018-Jun-17 01:26N 44°24' E 008°53'0 0.0
2018-Jun-17 00:59N 44°24' E 008°53'0 0.0
2018-Jun-17 00:29N 44°24' E 008°53'0 0.0
2018-Jun-16 23:59N 44°24' E 008°53'0 0.0
2018-Jun-16 23:29N 44°24' E 008°53'0 0.0
2018-Jun-16 22:59N 44°24' E 008°53'0 0.0
2018-Jun-16 22:29N 44°24' E 008°53'0 0.0
2018-Jun-16 21:59N 44°24' E 008°53'0 0.0
2018-Jun-16 21:29N 44°24' E 008°53'0 0.0
2018-Jun-16 20:59N 44°24' E 008°53'0 0.0
2018-Jun-16 20:29N 44°24' E 008°53'0 0.0
2018-Jun-16 19:59N 44°24' E 008°53'0 0.0
2018-Jun-16 19:29N 44°24' E 008°53'0 0.0
2018-Jun-16 18:59N 44°24' E 008°53'0 0.0
2018-Jun-16 18:29N 44°24' E 008°53'0 0.0
2018-Jun-16 17:59N 44°24' E 008°53'0 0.0
2018-Jun-16 17:29N 44°24' E 008°53'0 0.0
2018-Jun-16 16:59N 44°24' E 008°53'0 0.0
2018-Jun-16 16:29N 44°24' E 008°53'0 0.0
2018-Jun-16 15:59N 44°24' E 008°53'0 0.0
2018-Jun-16 15:29N 44°24' E 008°53'0 0.0
2018-Jun-16 14:59N 44°24' E 008°53'0 0.0
2018-Jun-16 14:29N 44°24' E 008°53'0 0.0
2018-Jun-16 13:59N 44°24' E 008°53'0 0.0
2018-Jun-16 13:29N 44°24' E 008°53'0 0.0
2018-Jun-16 12:59N 44°24' E 008°53'0 0.0
2018-Jun-16 12:29N 44°24' E 008°53'0 0.0
2018-Jun-16 11:59N 44°24' E 008°53'0 0.0
2018-Jun-16 11:26N 44°24' E 008°53'0 0.0
2018-Jun-16 10:59N 44°24' E 008°53'0 0.0
2018-Jun-16 10:29N 44°24' E 008°53'0 0.0
2018-Jun-16 09:59N 44°24' E 008°53'0 0.0
2018-Jun-16 09:29N 44°24' E 008°53'0 0.0
2018-Jun-16 08:59N 44°24' E 008°53'0 0.0
2018-Jun-16 08:29N 44°24' E 008°53'0 0.0
2018-Jun-16 07:59N 44°24' E 008°53'0 0.1
2018-Jun-16 07:29N 44°24' E 008°53'0 0.0
2018-Jun-16 06:59N 44°24' E 008°53'0 0.0
2018-Jun-16 06:29N 44°24' E 008°53'0 0.0
2018-Jun-16 05:59N 44°24' E 008°53'0 0.0
2018-Jun-16 05:29N 44°24' E 008°53'0 0.0
2018-Jun-16 04:59N 44°24' E 008°53'0 0.0
2018-Jun-16 04:29N 44°24' E 008°53'0 0.0
2018-Jun-16 03:59N 44°24' E 008°53'0 0.0
2018-Jun-16 03:29N 44°24' E 008°53'0 0.0
2018-Jun-16 02:56N 44°24' E 008°53'0 0.0
2018-Jun-16 02:29N 44°24' E 008°53'0 0.0
2018-Jun-16 01:59N 44°24' E 008°53'0 0.0
2018-Jun-16 01:26N 44°24' E 008°53'0 0.0
2018-Jun-16 00:56N 44°24' E 008°53'0 0.0
2018-Jun-16 00:29N 44°24' E 008°53'0 0.0
2018-Jun-15 23:59N 44°24' E 008°53'0 0.0
2018-Jun-15 23:29N 44°24' E 008°53'0 0.0
2018-Jun-15 22:59N 44°24' E 008°53'0 0.0
2018-Jun-15 22:29N 44°24' E 008°53'0 0.0
2018-Jun-15 21:59N 44°24' E 008°53'0 0.0
2018-Jun-15 21:29N 44°24' E 008°53'0 0.1
2018-Jun-15 20:59N 44°24' E 008°53'0 0.0
2018-Jun-15 20:29N 44°24' E 008°53'0 0.0
2018-Jun-15 19:59N 44°24' E 008°53'0 0.0
2018-Jun-15 19:29N 44°24' E 008°53'0 0.0
2018-Jun-15 18:59N 44°24' E 008°53'0 0.0
2018-Jun-15 18:29N 44°24' E 008°53'0 0.0
2018-Jun-15 17:56N 44°24' E 008°53'0 0.0
2018-Jun-15 17:29N 44°24' E 008°53'0 0.0
2018-Jun-15 16:59N 44°24' E 008°53'0 0.0
2018-Jun-15 16:29N 44°24' E 008°53'0 0.0
2018-Jun-15 15:59N 44°24' E 008°53'0 0.0
2018-Jun-15 15:29N 44°24' E 008°53'0 0.0
2018-Jun-15 14:59N 44°24' E 008°53'0 0.0
2018-Jun-15 14:29N 44°24' E 008°53'0 0.0
2018-Jun-15 13:59N 44°24' E 008°53'0 0.0
2018-Jun-15 13:29N 44°24' E 008°53'0 0.0
2018-Jun-15 12:59N 44°24' E 008°53'0 0.0
2018-Jun-15 12:26N 44°24' E 008°53'0 0.0
2018-Jun-15 11:59N 44°24' E 008°53'0 0.0
2018-Jun-15 11:29N 44°24' E 008°53'0 0.0
2018-Jun-15 10:59N 44°24' E 008°53'0 0.0
2018-Jun-15 10:29N 44°24' E 008°53'0 0.1
2018-Jun-15 09:59N 44°24' E 008°53'0 0.1
2018-Jun-15 09:29N 44°24' E 008°52'0 0.0
2018-Jun-15 08:59N 44°24' E 008°52'0 0.0
2018-Jun-15 08:29N 44°24' E 008°52'0 0.1
2018-Jun-15 07:59N 44°24' E 008°52'0 0.1
2018-Jun-15 07:29N 44°24' E 008°52'0 0.2
2018-Jun-15 06:59N 44°24' E 008°53'0 0.1
2018-Jun-15 06:29N 44°24' E 008°52'0 0.1
2018-Jun-15 05:59N 44°24' E 008°53'0 0.0
2018-Jun-15 05:29N 44°24' E 008°53'0 0.0
2018-Jun-15 04:59N 44°24' E 008°53'0 0.1
2018-Jun-15 04:29N 44°24' E 008°53'0 0.0
2018-Jun-15 03:59N 44°24' E 008°53'0 0.0
2018-Jun-15 03:29N 44°24' E 008°53'0 0.1
2018-Jun-15 02:59N 44°24' E 008°53'0 0.0
2018-Jun-15 02:29N 44°24' E 008°53'0 0.0
2018-Jun-15 01:59N 44°24' E 008°53'0 0.0
2018-Jun-15 01:29N 44°24' E 008°52'0 0.0
2018-Jun-15 00:59N 44°24' E 008°53'0 0.0
2018-Jun-15 00:29N 44°24' E 008°53'0 0.0
2018-Jun-14 23:59N 44°24' E 008°53'0 0.0
2018-Jun-14 23:29N 44°24' E 008°53'0 0.0
2018-Jun-14 22:59N 44°24' E 008°53'0 0.0
2018-Jun-14 22:29N 44°24' E 008°53'0 0.0
2018-Jun-14 21:59N 44°24' E 008°53'0 0.0
2018-Jun-14 21:29N 44°24' E 008°53'0 0.0
2018-Jun-14 20:59N 44°24' E 008°53'0 0.1
2018-Jun-14 20:29N 44°24' E 008°53'0 0.1
2018-Jun-14 19:59N 44°24' E 008°53'0 0.0
2018-Jun-14 19:29N 44°24' E 008°53'0 0.0
2018-Jun-14 18:59N 44°24' E 008°53'0 0.1
2018-Jun-14 18:29N 44°24' E 008°53'0 0.1
2018-Jun-14 17:56N 44°24' E 008°53'0 0.0
2018-Jun-14 17:29N 44°24' E 008°53'0 0.1
2018-Jun-14 16:56N 44°24' E 008°53'0 0.0
2018-Jun-14 16:29N 44°24' E 008°53'0 0.0
2018-Jun-14 15:59N 44°24' E 008°53'0 0.0
2018-Jun-14 15:29N 44°24' E 008°53'0 0.0
2018-Jun-14 14:59N 44°24' E 008°53'0 0.1
2018-Jun-14 14:29N 44°24' E 008°53'0 0.0
2018-Jun-14 13:59N 44°24' E 008°53'0 0.0
2018-Jun-14 13:29N 44°24' E 008°53'0 0.1
2018-Jun-14 12:59N 44°24' E 008°53'0 0.0
2018-Jun-14 12:29N 44°24' E 008°53'0 0.2
2018-Jun-14 11:59N 44°24' E 008°53'0 0.2
2018-Jun-14 11:29N 44°24' E 008°53'0 0.1
2018-Jun-14 10:59N 44°24' E 008°53'0 0.0
2018-Jun-14 10:29N 44°24' E 008°53'0 0.0
2018-Jun-14 09:59N 44°24' E 008°53'0 0.0
2018-Jun-14 09:29N 44°24' E 008°53'0 0.0
2018-Jun-14 08:59N 44°24' E 008°52'0 0.0
2018-Jun-14 08:26N 44°24' E 008°52'0 0.0
2018-Jun-14 07:59N 44°24' E 008°52'0 0.0
2018-Jun-14 07:29N 44°24' E 008°52'0 0.0
2018-Jun-14 06:59N 44°24' E 008°52'0 0.0
2018-Jun-14 06:29N 44°24' E 008°52'0 0.0
2018-Jun-14 05:59N 44°24' E 008°52'0 0.0
2018-Jun-14 05:29N 44°24' E 008°52'0 0.1
2018-Jun-14 04:59N 44°24' E 008°52'0 0.0
2018-Jun-14 04:29N 44°24' E 008°52'0 0.0
2018-Jun-14 03:59N 44°24' E 008°52'0 0.0
2018-Jun-14 03:26N 44°24' E 008°52'0 0.1
2018-Jun-14 02:59N 44°24' E 008°53'0 0.0
2018-Jun-14 02:29N 44°24' E 008°53'0 0.1
2018-Jun-14 01:59N 44°24' E 008°53'0 0.0
2018-Jun-14 01:29N 44°24' E 008°53'0 0.0
2018-Jun-14 00:59N 44°24' E 008°53'0 0.0
2018-Jun-14 00:29N 44°24' E 008°53'0 0.0
2018-Jun-13 23:59N 44°24' E 008°53'0 0.0
2018-Jun-13 23:29N 44°24' E 008°53'0 0.0
2018-Jun-13 22:59N 44°24' E 008°53'0 0.1
2018-Jun-13 22:29N 44°24' E 008°53'0 0.1
2018-Jun-13 21:59N 44°24' E 008°53'0 0.1
2018-Jun-13 21:29N 44°24' E 008°53'0 0.0
2018-Jun-13 20:59N 44°24' E 008°53'0 0.0
2018-Jun-13 20:29N 44°24' E 008°53'0 0.1
2018-Jun-13 19:59N 44°24' E 008°53'0 0.0
2018-Jun-13 19:29N 44°24' E 008°53'0 0.0
2018-Jun-13 18:59N 44°24' E 008°53'0 0.0
2018-Jun-13 18:29N 44°24' E 008°53'0 0.1
2018-Jun-13 17:56N 44°24' E 008°53'0 0.1
2018-Jun-13 17:26N 44°24' E 008°53'0 0.0
2018-Jun-13 16:59N 44°24' E 008°53'0 0.1
2018-Jun-13 16:29N 44°24' E 008°52'0 0.0
2018-Jun-13 15:59N 44°24' E 008°52'0 0.0
2018-Jun-13 15:26N 44°24' E 008°52'0 0.0
2018-Jun-13 14:59N 44°24' E 008°53'0 0.0
2018-Jun-13 14:29N 44°24' E 008°53'0 0.1
2018-Jun-13 13:56N 44°24' E 008°53'0 0.1
2018-Jun-13 13:29N 44°24' E 008°53'0 0.0
2018-Jun-13 12:56N 44°24' E 008°53'0 0.1
2018-Jun-13 12:29N 44°24' E 008°53'0 0.1
2018-Jun-13 11:59N 44°24' E 008°52'0 0.0
2018-Jun-13 11:29N 44°24' E 008°53'0 0.0
2018-Jun-13 10:59N 44°24' E 008°52'0 0.0
2018-Jun-13 10:29N 44°24' E 008°52'0 0.0
2018-Jun-13 09:59N 44°24' E 008°52'0 0.0
2018-Jun-13 09:29N 44°24' E 008°52'0 0.0
2018-Jun-13 08:59N 44°24' E 008°52'0 0.0
2018-Jun-13 08:29N 44°24' E 008°53'0 0.0
2018-Jun-13 07:59N 44°24' E 008°53'0 0.1
2018-Jun-13 07:29N 44°24' E 008°53'0 0.0
2018-Jun-13 06:59N 44°24' E 008°53'0 0.1
2018-Jun-13 06:29N 44°24' E 008°53'0 0.1
2018-Jun-13 05:59N 44°24' E 008°53'0 0.0
2018-Jun-13 05:29N 44°24' E 008°53'0 0.0
2018-Jun-13 04:59N 44°24' E 008°53'0 0.0
2018-Jun-13 04:29N 44°24' E 008°53'0 0.0
2018-Jun-13 03:59N 44°24' E 008°53'0 0.0
2018-Jun-13 03:29N 44°24' E 008°53'0 0.1
2018-Jun-13 02:59N 44°24' E 008°53'0 0.0
2018-Jun-13 02:29N 44°24' E 008°53'0 0.0
2018-Jun-13 01:59N 44°24' E 008°53'0 0.0
2018-Jun-13 01:29N 44°24' E 008°53'0 0.0
2018-Jun-13 00:59N 44°24' E 008°53'0 0.0
2018-Jun-13 00:26N 44°24' E 008°53'0 0.0
2018-Jun-12 23:56N 44°24' E 008°53'0 0.1
2018-Jun-12 23:29N 44°24' E 008°53'0 0.2
2018-Jun-12 22:59N 44°24' E 008°52'0 0.0
2018-Jun-12 22:29N 44°24' E 008°52'0 0.0
2018-Jun-12 21:59N 44°24' E 008°52'0 0.1
2018-Jun-12 21:29N 44°24' E 008°52'0 0.1
2018-Jun-12 20:59N 44°24' E 008°53'0 0.0
2018-Jun-12 20:29N 44°24' E 008°53'0 0.0
2018-Jun-12 19:59N 44°24' E 008°53'0 0.0
2018-Jun-12 19:29N 44°24' E 008°53'0 0.0
2018-Jun-12 18:59N 44°24' E 008°53'0 0.0
2018-Jun-12 18:29N 44°24' E 008°53'0 0.0
2018-Jun-12 17:59N 44°24' E 008°53'0 0.0
2018-Jun-12 17:29N 44°24' E 008°53'0 0.0
2018-Jun-12 16:59N 44°24' E 008°53'0 0.0
2018-Jun-12 16:29N 44°24' E 008°53'0 0.0
2018-Jun-12 15:59N 44°24' E 008°53'  
Track history (hours):
 
Tides and Currents Weather Stations Pressure Air Temp Water Temp Dewpoint Dewpoint Depression Visibility Wind Speed Wind Dir Waves Ship Positions

Njord Cloud

Last reported at 2018-Jun-22 15:48 UTC. Time now 2018-Jun-23 12:25 UTC.
Position N 41°02' E 001°34'.

Length 138 m; draft 6 m.

Type: Ship (hazmat cat B). MMSI: 311023300.

Date/timePositionNaut miles runAvg speedWind from/ knotsBaromVisibWave heightAir tempDewpointWater temp
2018-Jun-22 15:48N 41°02' E 001°34'413.7
2018-Jun-22 15:30N 41°01' E 001°39'713.6
2018-Jun-22 14:58N 41°01' E 001°49'613.8
2018-Jun-22 14:30N 40°60' E 001°57'713.9
2018-Jun-22 14:00N 40°59' E 002°06'714.1
2018-Jun-22 13:30N 40°58' E 002°16'714.3
2018-Jun-22 13:00N 40°57' E 002°25'714.2
2018-Jun-22 12:30N 40°56' E 002°34'713.9
2018-Jun-22 12:00N 40°55' E 002°43'713.9
2018-Jun-22 11:30N 40°54' E 002°52'5 9.0
2018-Jun-22 11:00N 40°54' E 002°58'4 7.4
2018-Jun-22 10:30N 40°54' E 003°03'21 7.5
2018-Jun-22 07:43N 40°52' E 003°31'5 7.4
2018-Jun-22 06:59N 40°51' E 003°38'5 7.5
2018-Jun-22 06:18N 40°51' E 003°45'2 7.5
2018-Jun-22 06:00N 40°51' E 003°48'4 7.5
2018-Jun-22 05:26N 40°50' E 003°53'13 7.5
2018-Jun-22 03:39N 40°49' E 004°11'2 7.4
2018-Jun-22 03:20N 40°49' E 004°14'18 7.4
2018-Jun-22 00:56N 40°47' E 004°37'3 7.6
2018-Jun-22 00:30N 40°47' E 004°42'4 7.5
2018-Jun-22 00:00N 40°47' E 004°47'17 7.5
2018-Jun-21 21:41N 40°45' E 005°09'1 7.5
2018-Jun-21 21:30N 40°45' E 005°11'15 7.4
2018-Jun-21 19:30N 40°44' E 005°31'125 7.2
2018-Jun-21 02:13N 42°17' E 007°22'314.3
2018-Jun-21 01:58N 42°20' E 007°25'4812.4
2018-Jun-20 22:06N 42°58' E 008°04'312.8
2018-Jun-20 21:53N 43°01' E 008°06'812.7
2018-Jun-20 21:13N 43°08' E 008°13'312.8
2018-Jun-20 21:00N 43°10' E 008°15'612.9
2018-Jun-20 20:30N 43°15' E 008°20'1312.8
2018-Jun-20 19:28N 43°27' E 008°28'1212.9
2018-Jun-20 18:32N 43°38' E 008°34'212.8
2018-Jun-20 18:20N 43°41' E 008°35'512.8
2018-Jun-20 17:59N 43°45' E 008°37'613.0
2018-Jun-20 17:30N 43°51' E 008°40'713.4
2018-Jun-20 17:00N 43°57' E 008°42'713.2
2018-Jun-20 16:30N 44°03' E 008°46'612.3
2018-Jun-20 16:00N 44°09' E 008°48'612.8
2018-Jun-20 15:30N 44°16' E 008°47'612.7
2018-Jun-20 15:00N 44°22' E 008°46'4 7.8
2018-Jun-20 14:30N 44°25' E 008°49'0 1.0
2018-Jun-20 14:00N 44°25' E 008°50'0 0.0
2018-Jun-20 13:27N 44°25' E 008°50'0 0.0
2018-Jun-20 13:00N 44°25' E 008°50'0 0.0
2018-Jun-20 12:30N 44°25' E 008°50'0 0.0
2018-Jun-20 11:57N 44°25' E 008°50'0 0.0
2018-Jun-20 11:30N 44°25' E 008°50'0 0.0
2018-Jun-20 10:51N 44°25' E 008°50'0 0.0
2018-Jun-20 10:30N 44°25' E 008°50'0 0.0
2018-Jun-20 09:51N 44°25' E 008°50'0 0.0
2018-Jun-20 09:30N 44°25' E 008°50'0 0.0
2018-Jun-20 08:48N 44°25' E 008°50'0 0.0
2018-Jun-20 08:21N 44°25' E 008°50'0 0.0
2018-Jun-20 07:54N 44°25' E 008°50'0 0.0
2018-Jun-20 07:21N 44°25' E 008°50'0 0.0
2018-Jun-20 06:54N 44°25' E 008°50'0 0.0
2018-Jun-20 06:24N 44°25' E 008°50'0 0.0
2018-Jun-20 05:54N 44°25' E 008°50'0 0.0
2018-Jun-20 05:24N 44°25' E 008°50'0 0.0
2018-Jun-20 04:51N 44°25' E 008°50'0 0.0
2018-Jun-20 04:24N 44°25' E 008°50'0 0.0
2018-Jun-20 03:54N 44°25' E 008°50'0 0.0
2018-Jun-20 03:12N 44°25' E 008°50'0 0.0
2018-Jun-20 02:57N 44°25' E 008°50'0 0.0
2018-Jun-20 02:15N 44°25' E 008°50'0 0.0
2018-Jun-20 01:57N 44°25' E 008°50'0 0.0
2018-Jun-20 01:30N 44°25' E 008°50'0 0.0
2018-Jun-20 00:57N 44°25' E 008°50'0 0.0
2018-Jun-20 00:27N 44°25' E 008°50'0 0.0
2018-Jun-19 23:45N 44°25' E 008°50'0 0.0
2018-Jun-19 23:27N 44°25' E 008°50'0 0.0
2018-Jun-19 22:45N 44°25' E 008°50'0 0.0
2018-Jun-19 22:27N 44°25' E 008°50'0 0.0
2018-Jun-19 21:48N 44°25' E 008°50'0 0.0
2018-Jun-19 21:15N 44°25' E 008°50'0 0.0
2018-Jun-19 20:51N 44°25' E 008°50'0 0.0
2018-Jun-19 20:21N 44°25' E 008°50'0 0.0
2018-Jun-19 19:51N 44°25' E 008°50'0 0.0
2018-Jun-19 19:03N 44°25' E 008°50'0 0.0
2018-Jun-19 18:51N 44°25' E 008°50'0 0.0
2018-Jun-19 18:21N 44°25' E 008°50'0 0.0
2018-Jun-19 17:54N 44°25' E 008°50'0 0.0
2018-Jun-19 17:21N 44°25' E 008°50'0 0.0
2018-Jun-19 16:54N 44°25' E 008°50'0 0.0
2018-Jun-19 16:24N 44°25' E 008°50'0 0.0
2018-Jun-19 15:54N 44°25' E 008°50'0 0.0
2018-Jun-19 15:24N 44°25' E 008°50'0 0.0
2018-Jun-19 14:57N 44°25' E 008°50'0 0.0
2018-Jun-19 14:27N 44°25' E 008°50'0 0.0
2018-Jun-19 13:54N 44°25' E 008°50'0 0.0
2018-Jun-19 13:24N 44°25' E 008°50'0 0.0
2018-Jun-19 12:54N 44°25' E 008°50'0 0.0
2018-Jun-19 12:24N 44°25' E 008°50'0 0.0
2018-Jun-19 12:00N 44°25' E 008°50'0 0.0
2018-Jun-19 11:27N 44°25' E 008°50'0 0.0
2018-Jun-19 11:00N 44°25' E 008°50'0 0.0
2018-Jun-19 10:27N 44°25' E 008°50'0 0.0
2018-Jun-19 10:00N 44°25' E 008°50'0 0.0
2018-Jun-19 09:30N 44°25' E 008°50'0 0.0
2018-Jun-19 09:00N 44°25' E 008°50'0 0.0
2018-Jun-19 08:30N 44°25' E 008°50'0 0.0
2018-Jun-19 08:00N 44°25' E 008°50'0 0.0
2018-Jun-19 07:30N 44°25' E 008°50'0 0.0
2018-Jun-19 07:00N 44°25' E 008°50'0 0.0
2018-Jun-19 06:30N 44°25' E 008°50'0 0.0
2018-Jun-19 06:00N 44°25' E 008°50'0 0.0
2018-Jun-19 05:30N 44°25' E 008°50'0 0.0
2018-Jun-19 04:51N 44°25' E 008°50'0 0.0
2018-Jun-19 04:18N 44°25' E 008°50'0 0.0
2018-Jun-19 03:51N 44°25' E 008°50'0 0.0
2018-Jun-19 03:24N 44°25' E 008°50'0 0.0
2018-Jun-19 02:54N 44°25' E 008°50'0 0.0
2018-Jun-19 02:24N 44°25' E 008°50'0 0.0
2018-Jun-19 01:54N 44°25' E 008°50'0 0.0
2018-Jun-19 00:54N 44°25' E 008°50'0 0.0
2018-Jun-19 00:27N 44°25' E 008°50'0 0.0
2018-Jun-18 23:57N 44°25' E 008°50'0 0.0
2018-Jun-18 23:27N 44°25' E 008°50'0 0.0
2018-Jun-18 22:57N 44°25' E 008°50'0 0.0
2018-Jun-18 22:27N 44°25' E 008°50'0 0.0
2018-Jun-18 22:00N 44°25' E 008°50'0 0.0
2018-Jun-18 21:30N 44°25' E 008°50'0 0.0
2018-Jun-18 21:00N 44°25' E 008°50'0 0.0
2018-Jun-18 20:30N 44°25' E 008°50'0 0.0
2018-Jun-18 20:00N 44°25' E 008°50'0 0.0
2018-Jun-18 19:30N 44°25' E 008°50'0 0.0
2018-Jun-18 19:00N 44°25' E 008°50'0 0.0
2018-Jun-18 18:30N 44°25' E 008°50'0 0.0
2018-Jun-18 17:57N 44°25' E 008°50'0 0.0
2018-Jun-18 17:30N 44°25' E 008°50'0 0.6
2018-Jun-18 17:01N 44°25' E 008°50'3 6.9
2018-Jun-18 16:30N 44°22' E 008°47'2 3.4
2018-Jun-18 16:00N 44°21' E 008°49'4 7.5
2018-Jun-18 15:30N 44°24' E 008°52'0 0.2
2018-Jun-18 14:59N 44°24' E 008°53'0 0.0
2018-Jun-18 14:29N 44°24' E 008°53'0 0.0
2018-Jun-18 13:59N 44°24' E 008°53'0 0.1
2018-Jun-18 13:29N 44°24' E 008°53'0 0.1
2018-Jun-18 12:59N 44°24' E 008°53'0 0.1
2018-Jun-18 12:29N 44°24' E 008°53'0 0.0
2018-Jun-18 11:59N 44°24' E 008°53'0 0.0
2018-Jun-18 11:29N 44°24' E 008°53'0 0.0
2018-Jun-18 10:59N 44°24' E 008°53'0 0.0
2018-Jun-18 10:29N 44°24' E 008°53'0 0.0
2018-Jun-18 09:59N 44°24' E 008°53'0 0.0
2018-Jun-18 09:29N 44°24' E 008°53'0 0.0
2018-Jun-18 08:59N 44°24' E 008°53'0 0.0
2018-Jun-18 08:29N 44°24' E 008°53'0 0.0
2018-Jun-18 07:59N 44°24' E 008°53'0 0.0
2018-Jun-18 07:29N 44°24' E 008°53'0 0.0
2018-Jun-18 06:59N 44°24' E 008°53'0 0.0
2018-Jun-18 06:29N 44°24' E 008°53'0 0.0
2018-Jun-18 05:59N 44°24' E 008°53'0 0.0
2018-Jun-18 05:29N 44°24' E 008°53'0 0.0
2018-Jun-18 04:59N 44°24' E 008°53'0 0.0
2018-Jun-18 04:29N 44°24' E 008°53'0 0.0
2018-Jun-18 03:59N 44°24' E 008°53'0 0.0
2018-Jun-18 03:29N 44°24' E 008°53'0 0.0
2018-Jun-18 02:59N 44°24' E 008°53'0 0.0
2018-Jun-18 02:29N 44°24' E 008°53'0 0.0
2018-Jun-18 01:59N 44°24' E 008°53'0 0.0
2018-Jun-18 01:29N 44°24' E 008°53'0 0.0
2018-Jun-18 00:59N 44°24' E 008°53'0 0.0
2018-Jun-18 00:29N 44°24' E 008°53'0 0.0
2018-Jun-17 23:59N 44°24' E 008°53'0 0.0
2018-Jun-17 23:29N 44°24' E 008°53'0 0.0
2018-Jun-17 22:59N 44°24' E 008°53'0 0.0
2018-Jun-17 22:29N 44°24' E 008°53'0 0.0
2018-Jun-17 21:59N 44°24' E 008°53'0 0.0
2018-Jun-17 21:29N 44°24' E 008°53'0 0.0
2018-Jun-17 20:56N 44°24' E 008°53'0 0.0
2018-Jun-17 20:29N 44°24' E 008°53'0 0.0
2018-Jun-17 19:59N 44°24' E 008°53'0 0.0
2018-Jun-17 19:29N 44°24' E 008°53'0 0.0
2018-Jun-17 18:59N 44°24' E 008°53'0 0.0
2018-Jun-17 18:29N 44°24' E 008°53'0 0.0
2018-Jun-17 17:56N 44°24' E 008°53'0 0.0
2018-Jun-17 17:29N 44°24' E 008°53'0 0.0
2018-Jun-17 16:59N 44°24' E 008°53'0 0.0
2018-Jun-17 16:29N 44°24' E 008°53'0 0.0
2018-Jun-17 15:59N 44°24' E 008°53'0 0.0
2018-Jun-17 15:29N 44°24' E 008°53'0 0.0
2018-Jun-17 14:59N 44°24' E 008°53'0 0.0
2018-Jun-17 14:29N 44°24' E 008°53'0 0.0
2018-Jun-17 13:59N 44°24' E 008°53'0 0.0
2018-Jun-17 13:29N 44°24' E 008°53'0 0.0
2018-Jun-17 12:59N 44°24' E 008°53'0 0.0
2018-Jun-17 12:29N 44°24' E 008°53'0 0.0
2018-Jun-17 11:59N 44°24' E 008°53'0 0.0
2018-Jun-17 11:29N 44°24' E 008°53'0 0.0
2018-Jun-17 10:59N 44°24' E 008°53'0 0.0
2018-Jun-17 10:29N 44°24' E 008°53'0 0.0
2018-Jun-17 09:59N 44°24' E 008°53'0 0.0
2018-Jun-17 09:29N 44°24' E 008°53'0 0.0
2018-Jun-17 08:59N 44°24' E 008°53'0 0.0
2018-Jun-17 08:29N 44°24' E 008°53'0 0.0
2018-Jun-17 07:59N 44°24' E 008°53'0 0.0
2018-Jun-17 07:29N 44°24' E 008°53'0 0.0
2018-Jun-17 06:59N 44°24' E 008°53'0 0.0
2018-Jun-17 06:29N 44°24' E 008°53'0 0.1
2018-Jun-17 05:59N 44°24' E 008°53'0 0.0
2018-Jun-17 05:26N 44°24' E 008°53'0 0.0
2018-Jun-17 04:59N 44°24' E 008°53'0 0.0
2018-Jun-17 04:29N 44°24' E 008°53'0 0.0
2018-Jun-17 03:59N 44°24' E 008°53'0 0.0
2018-Jun-17 03:29N 44°24' E 008°53'0 0.0
2018-Jun-17 02:56N 44°24' E 008°53'0 0.0
2018-Jun-17 02:29N 44°24' E 008°53'0 0.0
2018-Jun-17 01:59N 44°24' E 008°53'0 0.0
2018-Jun-17 01:26N 44°24' E 008°53'0 0.0
2018-Jun-17 00:59N 44°24' E 008°53'0 0.0
2018-Jun-17 00:29N 44°24' E 008°53'0 0.0
2018-Jun-16 23:59N 44°24' E 008°53'0 0.0
2018-Jun-16 23:29N 44°24' E 008°53'0 0.0
2018-Jun-16 22:59N 44°24' E 008°53'0 0.0
2018-Jun-16 22:29N 44°24' E 008°53'0 0.0
2018-Jun-16 21:59N 44°24' E 008°53'0 0.0
2018-Jun-16 21:29N 44°24' E 008°53'0 0.0
2018-Jun-16 20:59N 44°24' E 008°53'0 0.0
2018-Jun-16 20:29N 44°24' E 008°53'0 0.0
2018-Jun-16 19:59N 44°24' E 008°53'0 0.0
2018-Jun-16 19:29N 44°24' E 008°53'0 0.0
2018-Jun-16 18:59N 44°24' E 008°53'0 0.0
2018-Jun-16 18:29N 44°24' E 008°53'0 0.0
2018-Jun-16 17:59N 44°24' E 008°53'0 0.0
2018-Jun-16 17:29N 44°24' E 008°53'0 0.0
2018-Jun-16 16:59N 44°24' E 008°53'0 0.0
2018-Jun-16 16:29N 44°24' E 008°53'0 0.0
2018-Jun-16 15:59N 44°24' E 008°53'0 0.0
2018-Jun-16 15:29N 44°24' E 008°53'0 0.0
2018-Jun-16 14:59N 44°24' E 008°53'0 0.0
2018-Jun-16 14:29N 44°24' E 008°53'0 0.0
2018-Jun-16 13:59N 44°24' E 008°53'0 0.0
2018-Jun-16 13:29N 44°24' E 008°53'0 0.0
2018-Jun-16 12:59N 44°24' E 008°53'0 0.0
2018-Jun-16 12:29N 44°24' E 008°53'0 0.0
2018-Jun-16 11:59N 44°24' E 008°53'0 0.0
2018-Jun-16 11:26N 44°24' E 008°53'0 0.0
2018-Jun-16 10:59N 44°24' E 008°53'0 0.0
2018-Jun-16 10:29N 44°24' E 008°53'0 0.0
2018-Jun-16 09:59N 44°24' E 008°53'0 0.0
2018-Jun-16 09:29N 44°24' E 008°53'0 0.0
2018-Jun-16 08:59N 44°24' E 008°53'0 0.0
2018-Jun-16 08:29N 44°24' E 008°53'0 0.0
2018-Jun-16 07:59N 44°24' E 008°53'0 0.1
2018-Jun-16 07:29N 44°24' E 008°53'0 0.0
2018-Jun-16 06:59N 44°24' E 008°53'0 0.0
2018-Jun-16 06:29N 44°24' E 008°53'0 0.0
2018-Jun-16 05:59N 44°24' E 008°53'0 0.0
2018-Jun-16 05:29N 44°24' E 008°53'0 0.0
2018-Jun-16 04:59N 44°24' E 008°53'0 0.0
2018-Jun-16 04:29N 44°24' E 008°53'0 0.0
2018-Jun-16 03:59N 44°24' E 008°53'0 0.0
2018-Jun-16 03:29N 44°24' E 008°53'0 0.0
2018-Jun-16 02:56N 44°24' E 008°53'0 0.0
2018-Jun-16 02:29N 44°24' E 008°53'0 0.0
2018-Jun-16 01:59N 44°24' E 008°53'0 0.0
2018-Jun-16 01:26N 44°24' E 008°53'0 0.0
2018-Jun-16 00:56N 44°24' E 008°53'0 0.0
2018-Jun-16 00:29N 44°24' E 008°53'0 0.0
2018-Jun-15 23:59N 44°24' E 008°53'0 0.0
2018-Jun-15 23:29N 44°24' E 008°53'0 0.0
2018-Jun-15 22:59N 44°24' E 008°53'0 0.0
2018-Jun-15 22:29N 44°24' E 008°53'0 0.0
2018-Jun-15 21:59N 44°24' E 008°53'0 0.0
2018-Jun-15 21:29N 44°24' E 008°53'0 0.1
2018-Jun-15 20:59N 44°24' E 008°53'0 0.0
2018-Jun-15 20:29N 44°24' E 008°53'0 0.0
2018-Jun-15 19:59N 44°24' E 008°53'0 0.0
2018-Jun-15 19:29N 44°24' E 008°53'0 0.0
2018-Jun-15 18:59N 44°24' E 008°53'0 0.0
2018-Jun-15 18:29N 44°24' E 008°53'0 0.0
2018-Jun-15 17:56N 44°24' E 008°53'0 0.0
2018-Jun-15 17:29N 44°24' E 008°53'0 0.0
2018-Jun-15 16:59N 44°24' E 008°53'0 0.0
2018-Jun-15 16:29N 44°24' E 008°53'0 0.0
2018-Jun-15 15:59N 44°24' E 008°53'0 0.0
2018-Jun-15 15:29N 44°24' E 008°53'0 0.0
2018-Jun-15 14:59N 44°24' E 008°53'0 0.0
2018-Jun-15 14:29N 44°24' E 008°53'0 0.0
2018-Jun-15 13:59N 44°24' E 008°53'0 0.0
2018-Jun-15 13:29N 44°24' E 008°53'0 0.0
2018-Jun-15 12:59N 44°24' E 008°53'0 0.0
2018-Jun-15 12:26N 44°24' E 008°53'0 0.0
2018-Jun-15 11:59N 44°24' E 008°53'0 0.0
2018-Jun-15 11:29N 44°24' E 008°53'0 0.0
2018-Jun-15 10:59N 44°24' E 008°53'0 0.0
2018-Jun-15 10:29N 44°24' E 008°53'0 0.1
2018-Jun-15 09:59N 44°24' E 008°53'0 0.1
2018-Jun-15 09:29N 44°24' E 008°52'0 0.0
2018-Jun-15 08:59N 44°24' E 008°52'0 0.0
2018-Jun-15 08:29N 44°24' E 008°52'0 0.1
2018-Jun-15 07:59N 44°24' E 008°52'0 0.1
2018-Jun-15 07:29N 44°24' E 008°52'0 0.2
2018-Jun-15 06:59N 44°24' E 008°53'0 0.1
2018-Jun-15 06:29N 44°24' E 008°52'0 0.1
2018-Jun-15 05:59N 44°24' E 008°53'0 0.0
2018-Jun-15 05:29N 44°24' E 008°53'0 0.0
2018-Jun-15 04:59N 44°24' E 008°53'0 0.1
2018-Jun-15 04:29N 44°24' E 008°53'0 0.0
2018-Jun-15 03:59N 44°24' E 008°53'0 0.0
2018-Jun-15 03:29N 44°24' E 008°53'0 0.1
2018-Jun-15 02:59N 44°24' E 008°53'0 0.0
2018-Jun-15 02:29N 44°24' E 008°53'0 0.0
2018-Jun-15 01:59N 44°24' E 008°53'0 0.0
2018-Jun-15 01:29N 44°24' E 008°52'0 0.0
2018-Jun-15 00:59N 44°24' E 008°53'0 0.0
2018-Jun-15 00:29N 44°24' E 008°53'0 0.0
2018-Jun-14 23:59N 44°24' E 008°53'0 0.0
2018-Jun-14 23:29N 44°24' E 008°53'0 0.0
2018-Jun-14 22:59N 44°24' E 008°53'0 0.0
2018-Jun-14 22:29N 44°24' E 008°53'0 0.0
2018-Jun-14 21:59N 44°24' E 008°53'0 0.0
2018-Jun-14 21:29N 44°24' E 008°53'0 0.0
2018-Jun-14 20:59N 44°24' E 008°53'0 0.1
2018-Jun-14 20:29N 44°24' E 008°53'0 0.1
2018-Jun-14 19:59N 44°24' E 008°53'0 0.0
2018-Jun-14 19:29N 44°24' E 008°53'0 0.0
2018-Jun-14 18:59N 44°24' E 008°53'0 0.1
2018-Jun-14 18:29N 44°24' E 008°53'0 0.1
2018-Jun-14 17:56N 44°24' E 008°53'0 0.0
2018-Jun-14 17:29N 44°24' E 008°53'0 0.1
2018-Jun-14 16:56N 44°24' E 008°53'0 0.0
2018-Jun-14 16:29N 44°24' E 008°53'0 0.0
2018-Jun-14 15:59N 44°24' E 008°53'0 0.0
2018-Jun-14 15:29N 44°24' E 008°53'0 0.0
2018-Jun-14 14:59N 44°24' E 008°53'0 0.1
2018-Jun-14 14:29N 44°24' E 008°53'0 0.0
2018-Jun-14 13:59N 44°24' E 008°53'0 0.0
2018-Jun-14 13:29N 44°24' E 008°53'0 0.1
2018-Jun-14 12:59N 44°24' E 008°53'0 0.0
2018-Jun-14 12:29N 44°24' E 008°53'0 0.2
2018-Jun-14 11:59N 44°24' E 008°53'0 0.2
2018-Jun-14 11:29N 44°24' E 008°53'0 0.1
2018-Jun-14 10:59N 44°24' E 008°53'0 0.0
2018-Jun-14 10:29N 44°24' E 008°53'0 0.0
2018-Jun-14 09:59N 44°24' E 008°53'0 0.0
2018-Jun-14 09:29N 44°24' E 008°53'0 0.0
2018-Jun-14 08:59N 44°24' E 008°52'0 0.0
2018-Jun-14 08:26N 44°24' E 008°52'0 0.0
2018-Jun-14 07:59N 44°24' E 008°52'0 0.0
2018-Jun-14 07:29N 44°24' E 008°52'0 0.0
2018-Jun-14 06:59N 44°24' E 008°52'0 0.0
2018-Jun-14 06:29N 44°24' E 008°52'0 0.0
2018-Jun-14 05:59N 44°24' E 008°52'0 0.0
2018-Jun-14 05:29N 44°24' E 008°52'0 0.1
2018-Jun-14 04:59N 44°24' E 008°52'0 0.0
2018-Jun-14 04:29N 44°24' E 008°52'0 0.0
2018-Jun-14 03:59N 44°24' E 008°52'0 0.0
2018-Jun-14 03:26N 44°24' E 008°52'0 0.1
2018-Jun-14 02:59N 44°24' E 008°53'0 0.0
2018-Jun-14 02:29N 44°24' E 008°53'0 0.1
2018-Jun-14 01:59N 44°24' E 008°53'0 0.0
2018-Jun-14 01:29N 44°24' E 008°53'0 0.0
2018-Jun-14 00:59N 44°24' E 008°53'0 0.0
2018-Jun-14 00:29N 44°24' E 008°53'0 0.0
2018-Jun-13 23:59N 44°24' E 008°53'0 0.0
2018-Jun-13 23:29N 44°24' E 008°53'0 0.0
2018-Jun-13 22:59N 44°24' E 008°53'0 0.1
2018-Jun-13 22:29N 44°24' E 008°53'0 0.1
2018-Jun-13 21:59N 44°24' E 008°53'0 0.1
2018-Jun-13 21:29N 44°24' E 008°53'0 0.0
2018-Jun-13 20:59N 44°24' E 008°53'0 0.0
2018-Jun-13 20:29N 44°24' E 008°53'0 0.1
2018-Jun-13 19:59N 44°24' E 008°53'0 0.0
2018-Jun-13 19:29N 44°24' E 008°53'0 0.0
2018-Jun-13 18:59N 44°24' E 008°53'0 0.0
2018-Jun-13 18:29N 44°24' E 008°53'0 0.1
2018-Jun-13 17:56N 44°24' E 008°53'0 0.1
2018-Jun-13 17:26N 44°24' E 008°53'0 0.0
2018-Jun-13 16:59N 44°24' E 008°53'0 0.1
2018-Jun-13 16:29N 44°24' E 008°52'0 0.0
2018-Jun-13 15:59N 44°24' E 008°52'0 0.0
2018-Jun-13 15:26N 44°24' E 008°52'0 0.0
2018-Jun-13 14:59N 44°24' E 008°53'0 0.0
2018-Jun-13 14:29N 44°24' E 008°53'0 0.1
2018-Jun-13 13:56N 44°24' E 008°53'0 0.1
2018-Jun-13 13:29N 44°24' E 008°53'0 0.0
2018-Jun-13 12:56N 44°24' E 008°53'0 0.1
2018-Jun-13 12:29N 44°24' E 008°53'0 0.1
2018-Jun-13 11:59N 44°24' E 008°52'0 0.0
2018-Jun-13 11:29N 44°24' E 008°53'0 0.0
2018-Jun-13 10:59N 44°24' E 008°52'0 0.0
2018-Jun-13 10:29N 44°24' E 008°52'0 0.0
2018-Jun-13 09:59N 44°24' E 008°52'0 0.0
2018-Jun-13 09:29N 44°24' E 008°52'0 0.0
2018-Jun-13 08:59N 44°24' E 008°52'0 0.0
2018-Jun-13 08:29N 44°24' E 008°53'0 0.0
2018-Jun-13 07:59N 44°24' E 008°53'0 0.1
2018-Jun-13 07:29N 44°24' E 008°53'0 0.0
2018-Jun-13 06:59N 44°24' E 008°53'0 0.1
2018-Jun-13 06:29N 44°24' E 008°53'0 0.1
2018-Jun-13 05:59N 44°24' E 008°53'0 0.0
2018-Jun-13 05:29N 44°24' E 008°53'0 0.0
2018-Jun-13 04:59N 44°24' E 008°53'0 0.0
2018-Jun-13 04:29N 44°24' E 008°53'0 0.0
2018-Jun-13 03:59N 44°24' E 008°53'0 0.0
2018-Jun-13 03:29N 44°24' E 008°53'0 0.1
2018-Jun-13 02:59N 44°24' E 008°53'0 0.0
2018-Jun-13 02:29N 44°24' E 008°53'0 0.0
2018-Jun-13 01:59N 44°24' E 008°53'0 0.0
2018-Jun-13 01:29N 44°24' E 008°53'0 0.0
2018-Jun-13 00:59N 44°24' E 008°53'0 0.0
2018-Jun-13 00:26N 44°24' E 008°53'0 0.0
2018-Jun-12 23:56N 44°24' E 008°53'0 0.1
2018-Jun-12 23:29N 44°24' E 008°53'0 0.2
2018-Jun-12 22:59N 44°24' E 008°52'0 0.0
2018-Jun-12 22:29N 44°24' E 008°52'0 0.0
2018-Jun-12 21:59N 44°24' E 008°52'0 0.1
2018-Jun-12 21:29N 44°24' E 008°52'0 0.1
2018-Jun-12 20:59N 44°24' E 008°53'0 0.0
2018-Jun-12 20:29N 44°24' E 008°53'0 0.0
2018-Jun-12 19:59N 44°24' E 008°53'0 0.0
2018-Jun-12 19:29N 44°24' E 008°53'0 0.0
2018-Jun-12 18:59N 44°24' E 008°53'0 0.0
2018-Jun-12 18:29N 44°24' E 008°53'0 0.0
2018-Jun-12 17:59N 44°24' E 008°53'0 0.0
2018-Jun-12 17:29N 44°24' E 008°53'0 0.0
2018-Jun-12 16:59N 44°24' E 008°53'0 0.0
2018-Jun-12 16:29N 44°24' E 008°53'0 0.0
2018-Jun-12 15:59N 44°24' E 008°53'  

Dump ship's entire track history